Página principal
METAR-TAF:

METAR-TAF

Aeroportos :

Aeroporto Internacional Kenneth Kaunda

Lusaka, Zâmbia

latitude: 15-19-51S, longitude: 028-27-09E, altura: 1152 m

Observação actual do tempo

O boletim foi feito há 4 horas e 8 minutos, às 23:00 UTC
Vento 2 kt de su-sudeste
Temperatura 12°C
Humidade 94%
Pressão 1023 hPa
Visibilidade 10 km ou mais
sem nuvens abaixo de 1500 metros e sem cumulonimbus

METAR: FLKK 232300Z 16002KT CAVOK 12/11 Q1023

Hora: 05:08 (03:08 UTC)


TAF: em falta

Observações e previsões do tempo de mais de 4000 aeroportos (mensagens METAR e TAF).

As estações disponíveis são os pontos amarelos e vermelhos sobre o mapa.

Mova o rato sobre o mapa para ver o nome da estação.

Depois clique no ponto para visualizar as observações e previsões meteorológicas.

Para alterar o mapa : clique nos botões verdes com uma cruz preta para aumentar o zoom; no botão verde com uma pitada de zoom; ou nas setas verdes para mapas adjacentes.


METAR-TAF: